sensor_id;sensor_type;location;lat;lon;timestamp;P1;durP1;ratioP1;P2;durP2;ratioP2
67965;SDS011;54749;47.850;9.002;2022-11-14T00:01:24;38.00;;;13.68;;
67965;SDS011;54749;47.850;9.002;2022-11-14T00:04:10;44.92;;;16.38;;
67965;SDS011;54749;47.850;9.002;2022-11-14T00:06:56;32.00;;;12.57;;
67965;SDS011;54749;47.850;9.002;2022-11-14T00:09:41;28.40;;;10.27;;
67965;SDS011;54749;47.850;9.002;2022-11-14T00:12:27;29.77;;;11.30;;
67965;SDS011;54749;47.850;9.002;2022-11-14T00:15:13;27.60;;;10.35;;
67965;SDS011;54749;47.850;9.002;2022-11-14T00:17:59;38.35;;;12.70;;
67965;SDS011;54749;47.850;9.002;2022-11-14T00:20:49;39.13;;;13.43;;
67965;SDS011;54749;47.850;9.002;2022-11-14T00:23:35;33.80;;;13.20;;
67965;SDS011;54749;47.850;9.002;2022-11-14T00:26:21;37.13;;;13.03;;
67965;SDS011;54749;47.850;9.002;2022-11-14T00:29:07;42.97;;;14.77;;
67965;SDS011;54749;47.850;9.002;2022-11-14T00:31:54;48.92;;;17.10;;
67965;SDS011;54749;47.850;9.002;2022-11-14T00:34:40;44.53;;;15.35;;
67965;SDS011;54749;47.850;9.002;2022-11-14T00:37:26;40.05;;;13.77;;
67965;SDS011;54749;47.850;9.002;2022-11-14T00:40:11;34.67;;;13.83;;
67965;SDS011;54749;47.850;9.002;2022-11-14T00:42:58;35.72;;;12.65;;
67965;SDS011;54749;47.850;9.002;2022-11-14T00:45:44;36.42;;;13.27;;
67965;SDS011;54749;47.850;9.002;2022-11-14T00:48:31;44.38;;;14.75;;
67965;SDS011;54749;47.850;9.002;2022-11-14T00:51:16;33.70;;;11.68;;
67965;SDS011;54749;47.850;9.002;2022-11-14T00:54:03;33.27;;;12.23;;
67965;SDS011;54749;47.850;9.002;2022-11-14T00:56:48;35.00;;;11.60;;
67965;SDS011;54749;47.850;9.002;2022-11-14T00:59:34;32.83;;;11.95;;
67965;SDS011;54749;47.850;9.002;2022-11-14T01:02:19;40.25;;;14.82;;
67965;SDS011;54749;47.850;9.002;2022-11-14T01:05:05;49.60;;;16.40;;
67965;SDS011;54749;47.850;9.002;2022-11-14T01:07:51;34.90;;;12.53;;
67965;SDS011;54749;47.850;9.002;2022-11-14T01:10:37;34.17;;;12.10;;
67965;SDS011;54749;47.850;9.002;2022-11-14T01:13:30;36.70;;;12.10;;
67965;SDS011;54749;47.850;9.002;2022-11-14T01:16:16;27.40;;;9.60;;
67965;SDS011;54749;47.850;9.002;2022-11-14T01:19:03;28.23;;;10.88;;
67965;SDS011;54749;47.850;9.002;2022-11-14T01:21:49;26.67;;;10.53;;
67965;SDS011;54749;47.850;9.002;2022-11-14T01:24:34;28.20;;;10.05;;
67965;SDS011;54749;47.850;9.002;2022-11-14T01:27:20;32.00;;;11.38;;
67965;SDS011;54749;47.850;9.002;2022-11-14T01:30:05;33.70;;;11.90;;
67965;SDS011;54749;47.850;9.002;2022-11-14T01:32:52;28.80;;;10.68;;
67965;SDS011;54749;47.850;9.002;2022-11-14T01:35:37;29.37;;;10.90;;
67965;SDS011;54749;47.850;9.002;2022-11-14T01:38:23;30.15;;;11.85;;
67965;SDS011;54749;47.850;9.002;2022-11-14T01:41:10;36.05;;;12.25;;
67965;SDS011;54749;47.850;9.002;2022-11-14T01:43:58;31.13;;;11.45;;
67965;SDS011;54749;47.850;9.002;2022-11-14T01:46:47;28.17;;;10.55;;
67965;SDS011;54749;47.850;9.002;2022-11-14T01:49:41;30.03;;;11.13;;
67965;SDS011;54749;47.850;9.002;2022-11-14T01:52:30;28.05;;;10.77;;
67965;SDS011;54749;47.850;9.002;2022-11-14T01:55:20;28.00;;;10.00;;
67965;SDS011;54749;47.850;9.002;2022-11-14T01:58:06;31.50;;;10.43;;
67965;SDS011;54749;47.850;9.002;2022-11-14T02:00:51;31.13;;;11.65;;
67965;SDS011;54749;47.850;9.002;2022-11-14T02:03:38;37.90;;;13.30;;
67965;SDS011;54749;47.850;9.002;2022-11-14T02:06:27;37.95;;;13.73;;
67965;SDS011;54749;47.850;9.002;2022-11-14T02:09:14;32.15;;;11.90;;
67965;SDS011;54749;47.850;9.002;2022-11-14T02:12:01;47.08;;;16.55;;
67965;SDS011;54749;47.850;9.002;2022-11-14T02:14:50;47.78;;;16.63;;
67965;SDS011;54749;47.850;9.002;2022-11-14T02:17:39;56.90;;;19.23;;
67965;SDS011;54749;47.850;9.002;2022-11-14T02:20:26;48.40;;;15.93;;
67965;SDS011;54749;47.850;9.002;2022-11-14T02:23:13;49.33;;;16.98;;
67965;SDS011;54749;47.850;9.002;2022-11-14T02:25:59;45.22;;;15.90;;
67965;SDS011;54749;47.850;9.002;2022-11-14T02:28:45;40.55;;;14.13;;
67965;SDS011;54749;47.850;9.002;2022-11-14T02:31:31;41.97;;;14.73;;
67965;SDS011;54749;47.850;9.002;2022-11-14T02:34:17;38.55;;;14.13;;
67965;SDS011;54749;47.850;9.002;2022-11-14T02:37:04;34.90;;;11.98;;
67965;SDS011;54749;47.850;9.002;2022-11-14T02:39:50;40.15;;;13.07;;
67965;SDS011;54749;47.850;9.002;2022-11-14T02:42:35;32.78;;;11.82;;
67965;SDS011;54749;47.850;9.002;2022-11-14T02:45:20;37.10;;;12.60;;
67965;SDS011;54749;47.850;9.002;2022-11-14T02:48:06;33.17;;;10.75;;
67965;SDS011;54749;47.850;9.002;2022-11-14T02:50:51;31.02;;;10.82;;
67965;SDS011;54749;47.850;9.002;2022-11-14T02:53:37;31.83;;;11.48;;
67965;SDS011;54749;47.850;9.002;2022-11-14T02:56:22;31.10;;;10.45;;
67965;SDS011;54749;47.850;9.002;2022-11-14T02:59:07;30.90;;;10.47;;
67965;SDS011;54749;47.850;9.002;2022-11-14T03:01:53;29.65;;;10.20;;
67965;SDS011;54749;47.850;9.002;2022-11-14T03:04:39;29.42;;;9.98;;
67965;SDS011;54749;47.850;9.002;2022-11-14T03:07:24;28.98;;;9.98;;
67965;SDS011;54749;47.850;9.002;2022-11-14T03:10:10;27.75;;;10.10;;
67965;SDS011;54749;47.850;9.002;2022-11-14T03:12:55;24.33;;;9.43;;
67965;SDS011;54749;47.850;9.002;2022-11-14T03:15:41;27.40;;;9.75;;
67965;SDS011;54749;47.850;9.002;2022-11-14T03:18:27;24.50;;;8.85;;
67965;SDS011;54749;47.850;9.002;2022-11-14T03:21:14;24.50;;;8.95;;
67965;SDS011;54749;47.850;9.002;2022-11-14T03:24:02;25.88;;;9.52;;
67965;SDS011;54749;47.850;9.002;2022-11-14T03:26:47;27.53;;;9.37;;
67965;SDS011;54749;47.850;9.002;2022-11-14T03:29:33;25.70;;;10.45;;
67965;SDS011;54749;47.850;9.002;2022-11-14T03:32:18;27.38;;;10.50;;
67965;SDS011;54749;47.850;9.002;2022-11-14T03:35:04;27.23;;;9.93;;
67965;SDS011;54749;47.850;9.002;2022-11-14T03:37:50;26.50;;;10.25;;
67965;SDS011;54749;47.850;9.002;2022-11-14T03:40:40;24.80;;;9.40;;
67965;SDS011;54749;47.850;9.002;2022-11-14T03:43:29;23.77;;;8.90;;
67965;SDS011;54749;47.850;9.002;2022-11-14T03:46:16;27.27;;;9.60;;
67965;SDS011;54749;47.850;9.002;2022-11-14T03:49:02;28.08;;;10.48;;
67965;SDS011;54749;47.850;9.002;2022-11-14T03:51:48;28.38;;;10.75;;
67965;SDS011;54749;47.850;9.002;2022-11-14T03:54:34;28.53;;;9.83;;
67965;SDS011;54749;47.850;9.002;2022-11-14T03:57:19;26.92;;;10.27;;
67965;SDS011;54749;47.850;9.002;2022-11-14T04:00:05;29.33;;;10.85;;
67965;SDS011;54749;47.850;9.002;2022-11-14T04:02:51;27.05;;;9.43;;
67965;SDS011;54749;47.850;9.002;2022-11-14T04:05:38;30.27;;;10.95;;
67965;SDS011;54749;47.850;9.002;2022-11-14T04:08:23;33.63;;;11.57;;
67965;SDS011;54749;47.850;9.002;2022-11-14T04:11:08;33.10;;;12.23;;
67965;SDS011;54749;47.850;9.002;2022-11-14T04:13:54;29.90;;;10.73;;
67965;SDS011;54749;47.850;9.002;2022-11-14T04:16:40;26.50;;;9.57;;
67965;SDS011;54749;47.850;9.002;2022-11-14T04:19:25;25.85;;;9.57;;
67965;SDS011;54749;47.850;9.002;2022-11-14T04:22:10;26.47;;;9.63;;
67965;SDS011;54749;47.850;9.002;2022-11-14T04:24:55;24.63;;;9.65;;
67965;SDS011;54749;47.850;9.002;2022-11-14T04:27:42;25.33;;;9.82;;
67965;SDS011;54749;47.850;9.002;2022-11-14T04:30:28;24.92;;;9.40;;
67965;SDS011;54749;47.850;9.002;2022-11-14T04:33:18;23.65;;;8.85;;
67965;SDS011;54749;47.850;9.002;2022-11-14T04:36:04;28.17;;;10.70;;
67965;SDS011;54749;47.850;9.002;2022-11-14T04:38:50;24.35;;;9.43;;
67965;SDS011;54749;47.850;9.002;2022-11-14T04:41:35;26.08;;;9.15;;
67965;SDS011;54749;47.850;9.002;2022-11-14T04:44:20;24.02;;;8.57;;
67965;SDS011;54749;47.850;9.002;2022-11-14T04:47:06;25.42;;;9.43;;
67965;SDS011;54749;47.850;9.002;2022-11-14T04:49:52;25.30;;;9.70;;
67965;SDS011;54749;47.850;9.002;2022-11-14T04:52:37;28.42;;;10.25;;
67965;SDS011;54749;47.850;9.002;2022-11-14T04:55:23;25.95;;;9.45;;
67965;SDS011;54749;47.850;9.002;2022-11-14T04:58:09;29.42;;;10.77;;
67965;SDS011;54749;47.850;9.002;2022-11-14T05:00:54;28.20;;;10.77;;
67965;SDS011;54749;47.850;9.002;2022-11-14T05:03:42;25.53;;;9.37;;
67965;SDS011;54749;47.850;9.002;2022-11-14T05:06:27;24.98;;;8.95;;
67965;SDS011;54749;47.850;9.002;2022-11-14T05:09:13;27.52;;;9.88;;
67965;SDS011;54749;47.850;9.002;2022-11-14T05:11:58;21.92;;;7.75;;
67965;SDS011;54749;47.850;9.002;2022-11-14T05:14:43;27.55;;;9.13;;
67965;SDS011;54749;47.850;9.002;2022-11-14T05:17:29;30.13;;;10.40;;
67965;SDS011;54749;47.850;9.002;2022-11-14T05:20:15;39.97;;;14.68;;
67965;SDS011;54749;47.850;9.002;2022-11-14T05:23:01;38.22;;;14.82;;
67965;SDS011;54749;47.850;9.002;2022-11-14T05:25:46;42.13;;;13.75;;
67965;SDS011;54749;47.850;9.002;2022-11-14T05:28:32;36.88;;;13.02;;
67965;SDS011;54749;47.850;9.002;2022-11-14T05:31:18;43.07;;;15.93;;
67965;SDS011;54749;47.850;9.002;2022-11-14T05:34:03;43.92;;;16.13;;
67965;SDS011;54749;47.850;9.002;2022-11-14T05:36:49;49.33;;;17.27;;
67965;SDS011;54749;47.850;9.002;2022-11-14T05:39:34;35.58;;;12.98;;
67965;SDS011;54749;47.850;9.002;2022-11-14T05:42:19;31.75;;;11.25;;
67965;SDS011;54749;47.850;9.002;2022-11-14T05:45:05;33.60;;;11.67;;
67965;SDS011;54749;47.850;9.002;2022-11-14T05:47:51;31.80;;;10.77;;
67965;SDS011;54749;47.850;9.002;2022-11-14T05:50:38;31.92;;;10.00;;
67965;SDS011;54749;47.850;9.002;2022-11-14T05:53:24;31.58;;;11.60;;
67965;SDS011;54749;47.850;9.002;2022-11-14T05:56:10;35.55;;;12.57;;
67965;SDS011;54749;47.850;9.002;2022-11-14T05:58:56;43.03;;;14.47;;
67965;SDS011;54749;47.850;9.002;2022-11-14T06:01:42;35.10;;;11.68;;
67965;SDS011;54749;47.850;9.002;2022-11-14T06:04:28;43.65;;;15.13;;
67965;SDS011;54749;47.850;9.002;2022-11-14T06:07:14;42.85;;;16.00;;
67965;SDS011;54749;47.850;9.002;2022-11-14T06:10:04;39.92;;;13.73;;
67965;SDS011;54749;47.850;9.002;2022-11-14T06:12:50;35.53;;;12.30;;
67965;SDS011;54749;47.850;9.002;2022-11-14T06:15:36;33.78;;;11.45;;
67965;SDS011;54749;47.850;9.002;2022-11-14T06:18:21;31.33;;;11.70;;
67965;SDS011;54749;47.850;9.002;2022-11-14T06:21:28;29.13;;;9.98;;
67965;SDS011;54749;47.850;9.002;2022-11-14T06:24:12;30.98;;;10.45;;
67965;SDS011;54749;47.850;9.002;2022-11-14T06:26:57;32.70;;;11.70;;
67965;SDS011;54749;47.850;9.002;2022-11-14T06:29:43;35.65;;;12.30;;
67965;SDS011;54749;47.850;9.002;2022-11-14T06:32:28;33.17;;;12.05;;
67965;SDS011;54749;47.850;9.002;2022-11-14T06:35:13;32.45;;;10.82;;
67965;SDS011;54749;47.850;9.002;2022-11-14T06:37:59;29.55;;;10.15;;
67965;SDS011;54749;47.850;9.002;2022-11-14T06:40:45;28.63;;;10.93;;
67965;SDS011;54749;47.850;9.002;2022-11-14T06:43:31;37.17;;;12.65;;
67965;SDS011;54749;47.850;9.002;2022-11-14T06:46:21;37.58;;;13.05;;
67965;SDS011;54749;47.850;9.002;2022-11-14T06:49:07;39.65;;;13.50;;
67965;SDS011;54749;47.850;9.002;2022-11-14T06:51:53;35.78;;;13.02;;
67965;SDS011;54749;47.850;9.002;2022-11-14T06:54:39;35.43;;;10.83;;
67965;SDS011;54749;47.850;9.002;2022-11-14T06:57:24;35.95;;;12.80;;
67965;SDS011;54749;47.850;9.002;2022-11-14T07:00:09;34.03;;;11.38;;
67965;SDS011;54749;47.850;9.002;2022-11-14T07:02:55;25.73;;;10.35;;
67965;SDS011;54749;47.850;9.002;2022-11-14T07:05:40;31.98;;;11.90;;
67965;SDS011;54749;47.850;9.002;2022-11-14T07:08:26;31.07;;;12.23;;
67965;SDS011;54749;47.850;9.002;2022-11-14T07:11:13;32.33;;;12.48;;
67965;SDS011;54749;47.850;9.002;2022-11-14T07:14:07;31.23;;;11.00;;
67965;SDS011;54749;47.850;9.002;2022-11-14T07:16:53;27.92;;;9.75;;
67965;SDS011;54749;47.850;9.002;2022-11-14T07:19:38;32.17;;;9.98;;
67965;SDS011;54749;47.850;9.002;2022-11-14T07:22:24;26.83;;;8.87;;
67965;SDS011;54749;47.850;9.002;2022-11-14T07:25:09;43.75;;;15.80;;
67965;SDS011;54749;47.850;9.002;2022-11-14T07:27:56;38.13;;;14.52;;
67965;SDS011;54749;47.850;9.002;2022-11-14T07:30:41;33.22;;;11.52;;
67965;SDS011;54749;47.850;9.002;2022-11-14T07:33:27;34.50;;;10.30;;
67965;SDS011;54749;47.850;9.002;2022-11-14T07:36:14;33.03;;;11.47;;
67965;SDS011;54749;47.850;9.002;2022-11-14T07:39:00;41.47;;;13.48;;
67965;SDS011;54749;47.850;9.002;2022-11-14T07:41:45;32.35;;;11.20;;
67965;SDS011;54749;47.850;9.002;2022-11-14T07:44:31;39.72;;;13.52;;
67965;SDS011;54749;47.850;9.002;2022-11-14T07:47:16;35.33;;;13.27;;
67965;SDS011;54749;47.850;9.002;2022-11-14T07:50:01;34.80;;;12.47;;
67965;SDS011;54749;47.850;9.002;2022-11-14T07:52:51;37.17;;;12.82;;
67965;SDS011;54749;47.850;9.002;2022-11-14T07:55:37;31.80;;;10.50;;
67965;SDS011;54749;47.850;9.002;2022-11-14T07:58:22;40.45;;;11.98;;
67965;SDS011;54749;47.850;9.002;2022-11-14T08:01:09;35.50;;;12.02;;
67965;SDS011;54749;47.850;9.002;2022-11-14T08:03:55;34.17;;;10.57;;
67965;SDS011;54749;47.850;9.002;2022-11-14T08:06:41;44.13;;;13.90;;
67965;SDS011;54749;47.850;9.002;2022-11-14T08:09:26;39.42;;;12.20;;
67965;SDS011;54749;47.850;9.002;2022-11-14T08:12:12;43.63;;;12.95;;
67965;SDS011;54749;47.850;9.002;2022-11-14T08:14:57;50.72;;;15.88;;
67965;SDS011;54749;47.850;9.002;2022-11-14T08:17:43;54.23;;;15.97;;
67965;SDS011;54749;47.850;9.002;2022-11-14T08:20:29;44.35;;;13.55;;
67965;SDS011;54749;47.850;9.002;2022-11-14T08:23:14;45.95;;;12.77;;
67965;SDS011;54749;47.850;9.002;2022-11-14T08:26:00;36.85;;;11.20;;
67965;SDS011;54749;47.850;9.002;2022-11-14T08:28:45;34.95;;;10.52;;
67965;SDS011;54749;47.850;9.002;2022-11-14T08:31:30;44.90;;;13.97;;
67965;SDS011;54749;47.850;9.002;2022-11-14T08:34:16;45.70;;;13.80;;
67965;SDS011;54749;47.850;9.002;2022-11-14T08:37:01;44.75;;;13.13;;
67965;SDS011;54749;47.850;9.002;2022-11-14T08:39:47;55.78;;;16.42;;
67965;SDS011;54749;47.850;9.002;2022-11-14T08:42:33;70.30;;;22.05;;
67965;SDS011;54749;47.850;9.002;2022-11-14T08:45:18;68.73;;;19.80;;
67965;SDS011;54749;47.850;9.002;2022-11-14T08:48:03;63.08;;;18.40;;
67965;SDS011;54749;47.850;9.002;2022-11-14T08:50:50;66.50;;;19.90;;
67965;SDS011;54749;47.850;9.002;2022-11-14T08:53:35;71.40;;;20.45;;
67965;SDS011;54749;47.850;9.002;2022-11-14T08:56:21;43.28;;;14.55;;
67965;SDS011;54749;47.850;9.002;2022-11-14T08:59:06;35.03;;;13.00;;
67965;SDS011;54749;47.850;9.002;2022-11-14T09:01:52;42.08;;;15.45;;
67965;SDS011;54749;47.850;9.002;2022-11-14T09:04:37;40.17;;;14.02;;
67965;SDS011;54749;47.850;9.002;2022-11-14T09:07:22;44.78;;;17.13;;
67965;SDS011;54749;47.850;9.002;2022-11-14T09:10:08;39.63;;;14.77;;
67965;SDS011;54749;47.850;9.002;2022-11-14T09:12:57;47.47;;;17.07;;
67965;SDS011;54749;47.850;9.002;2022-11-14T09:15:43;35.65;;;13.40;;
67965;SDS011;54749;47.850;9.002;2022-11-14T09:18:29;48.55;;;16.90;;
67965;SDS011;54749;47.850;9.002;2022-11-14T09:21:15;48.25;;;17.08;;
67965;SDS011;54749;47.850;9.002;2022-11-14T09:24:01;44.00;;;16.85;;
67965;SDS011;54749;47.850;9.002;2022-11-14T09:26:47;48.70;;;16.97;;
67965;SDS011;54749;47.850;9.002;2022-11-14T09:29:40;50.55;;;17.70;;
67965;SDS011;54749;47.850;9.002;2022-11-14T09:32:26;48.83;;;17.35;;
67965;SDS011;54749;47.850;9.002;2022-11-14T09:35:12;48.35;;;17.83;;
67965;SDS011;54749;47.850;9.002;2022-11-14T09:38:07;43.95;;;16.70;;
67965;SDS011;54749;47.850;9.002;2022-11-14T09:44:12;41.83;;;16.73;;
67965;SDS011;54749;47.850;9.002;2022-11-14T09:47:08;40.20;;;15.05;;
67965;SDS011;54749;47.850;9.002;2022-11-14T09:50:06;39.28;;;13.88;;
67965;SDS011;54749;47.850;9.002;2022-11-14T09:52:55;40.53;;;15.98;;
67965;SDS011;54749;47.850;9.002;2022-11-14T09:55:44;42.13;;;15.63;;
67965;SDS011;54749;47.850;9.002;2022-11-14T09:58:29;38.13;;;14.98;;
67965;SDS011;54749;47.850;9.002;2022-11-14T10:01:27;36.35;;;14.02;;
67965;SDS011;54749;47.850;9.002;2022-11-14T10:04:39;34.85;;;13.02;;
67965;SDS011;54749;47.850;9.002;2022-11-14T10:17:16;27.15;;;10.80;;
67965;SDS011;54749;47.850;9.002;2022-11-14T10:35:12;25.20;;;9.77;;
67965;SDS011;54749;47.850;9.002;2022-11-14T10:38:16;18.58;;;8.60;;
67965;SDS011;54749;47.850;9.002;2022-11-14T10:41:07;26.07;;;10.80;;
67965;SDS011;54749;47.850;9.002;2022-11-14T10:44:14;22.67;;;9.63;;
67965;SDS011;54749;47.850;9.002;2022-11-14T10:47:06;26.88;;;10.60;;
67965;SDS011;54749;47.850;9.002;2022-11-14T10:49:57;24.48;;;10.23;;
67965;SDS011;54749;47.850;9.002;2022-11-14T10:52:50;20.92;;;9.00;;
67965;SDS011;54749;47.850;9.002;2022-11-14T10:55:40;22.87;;;9.23;;
67965;SDS011;54749;47.850;9.002;2022-11-14T10:58:45;19.98;;;8.32;;
67965;SDS011;54749;47.850;9.002;2022-11-14T11:01:35;21.85;;;8.85;;
67965;SDS011;54749;47.850;9.002;2022-11-14T11:04:30;23.30;;;10.38;;
67965;SDS011;54749;47.850;9.002;2022-11-14T11:07:23;26.35;;;11.50;;
67965;SDS011;54749;47.850;9.002;2022-11-14T11:10:28;20.90;;;9.10;;
67965;SDS011;54749;47.850;9.002;2022-11-14T11:13:35;23.25;;;9.88;;
67965;SDS011;54749;47.850;9.002;2022-11-14T11:16:31;24.10;;;10.90;;
67965;SDS011;54749;47.850;9.002;2022-11-14T11:19:23;26.02;;;11.68;;
67965;SDS011;54749;47.850;9.002;2022-11-14T11:22:57;22.15;;;9.80;;
67965;SDS011;54749;47.850;9.002;2022-11-14T11:25:30;23.47;;;10.03;;
67965;SDS011;54749;47.850;9.002;2022-11-14T11:28:18;18.50;;;8.30;;
67965;SDS011;54749;47.850;9.002;2022-11-14T11:31:09;19.50;;;8.48;;
67965;SDS011;54749;47.850;9.002;2022-11-14T11:33:58;20.00;;;9.30;;
67965;SDS011;54749;47.850;9.002;2022-11-14T11:36:48;20.08;;;9.18;;
67965;SDS011;54749;47.850;9.002;2022-11-14T11:39:40;18.07;;;8.40;;
67965;SDS011;54749;47.850;9.002;2022-11-14T11:45:47;19.30;;;8.20;;
67965;SDS011;54749;47.850;9.002;2022-11-14T11:48:37;20.02;;;8.13;;
67965;SDS011;54749;47.850;9.002;2022-11-14T11:51:24;17.70;;;7.80;;
67965;SDS011;54749;47.850;9.002;2022-11-14T11:54:29;15.30;;;7.33;;
67965;SDS011;54749;47.850;9.002;2022-11-14T11:57:35;17.23;;;8.50;;
67965;SDS011;54749;47.850;9.002;2022-11-14T12:00:26;17.52;;;7.70;;
67965;SDS011;54749;47.850;9.002;2022-11-14T12:03:12;16.42;;;8.18;;
67965;SDS011;54749;47.850;9.002;2022-11-14T12:09:05;24.07;;;9.33;;
67965;SDS011;54749;47.850;9.002;2022-11-14T12:11:53;26.35;;;10.57;;
67965;SDS011;54749;47.850;9.002;2022-11-14T12:26:57;21.67;;;10.02;;
67965;SDS011;54749;47.850;9.002;2022-11-14T12:30:09;25.20;;;12.25;;
67965;SDS011;54749;47.850;9.002;2022-11-14T12:33:03;23.52;;;10.80;;
67965;SDS011;54749;47.850;9.002;2022-11-14T12:35:55;33.08;;;14.80;;
67965;SDS011;54749;47.850;9.002;2022-11-14T12:38:47;22.77;;;11.23;;
67965;SDS011;54749;47.850;9.002;2022-11-14T12:41:36;15.10;;;7.82;;
67965;SDS011;54749;47.850;9.002;2022-11-14T12:47:16;28.30;;;12.80;;
67965;SDS011;54749;47.850;9.002;2022-11-14T12:50:26;15.95;;;7.25;;
67965;SDS011;54749;47.850;9.002;2022-11-14T12:59:48;19.77;;;8.48;;
67965;SDS011;54749;47.850;9.002;2022-11-14T13:12:17;17.50;;;8.57;;
67965;SDS011;54749;47.850;9.002;2022-11-14T13:27:46;15.48;;;7.70;;
67965;SDS011;54749;47.850;9.002;2022-11-14T13:34:27;15.10;;;7.20;;
67965;SDS011;54749;47.850;9.002;2022-11-14T13:37:30;12.63;;;5.80;;
67965;SDS011;54749;47.850;9.002;2022-11-14T13:40:26;10.80;;;5.03;;
67965;SDS011;54749;47.850;9.002;2022-11-14T13:52:22;12.80;;;5.15;;
67965;SDS011;54749;47.850;9.002;2022-11-14T14:14:31;12.40;;;6.32;;
67965;SDS011;54749;47.850;9.002;2022-11-14T14:20:39;18.02;;;8.10;;
67965;SDS011;54749;47.850;9.002;2022-11-14T14:23:45;14.13;;;6.03;;
67965;SDS011;54749;47.850;9.002;2022-11-14T14:35:51;48.75;;;20.98;;
67965;SDS011;54749;47.850;9.002;2022-11-14T14:38:37;25.10;;;12.65;;
67965;SDS011;54749;47.850;9.002;2022-11-14T14:41:23;22.47;;;11.10;;
67965;SDS011;54749;47.850;9.002;2022-11-14T14:44:23;25.25;;;10.77;;
67965;SDS011;54749;47.850;9.002;2022-11-14T14:47:39;22.83;;;11.07;;
67965;SDS011;54749;47.850;9.002;2022-11-14T14:50:27;24.17;;;10.57;;
67965;SDS011;54749;47.850;9.002;2022-11-14T14:53:22;27.55;;;12.80;;
67965;SDS011;54749;47.850;9.002;2022-11-14T14:56:16;24.83;;;11.70;;
67965;SDS011;54749;47.850;9.002;2022-11-14T14:59:14;24.20;;;11.35;;
67965;SDS011;54749;47.850;9.002;2022-11-14T15:02:01;23.98;;;10.77;;
67965;SDS011;54749;47.850;9.002;2022-11-14T15:04:46;25.88;;;11.95;;
67965;SDS011;54749;47.850;9.002;2022-11-14T15:07:32;21.40;;;10.27;;
67965;SDS011;54749;47.850;9.002;2022-11-14T15:10:19;21.90;;;10.07;;
67965;SDS011;54749;47.850;9.002;2022-11-14T15:13:07;25.77;;;11.65;;
67965;SDS011;54749;47.850;9.002;2022-11-14T15:15:58;20.00;;;8.90;;
67965;SDS011;54749;47.850;9.002;2022-11-14T15:18:44;18.75;;;8.90;;
67965;SDS011;54749;47.850;9.002;2022-11-14T15:21:32;19.05;;;7.95;;
67965;SDS011;54749;47.850;9.002;2022-11-14T15:24:19;21.30;;;9.10;;
67965;SDS011;54749;47.850;9.002;2022-11-14T15:27:10;16.65;;;7.35;;
67965;SDS011;54749;47.850;9.002;2022-11-14T15:30:00;15.50;;;7.13;;
67965;SDS011;54749;47.850;9.002;2022-11-14T15:32:47;15.13;;;7.13;;
67965;SDS011;54749;47.850;9.002;2022-11-14T15:35:35;19.67;;;8.10;;
67965;SDS011;54749;47.850;9.002;2022-11-14T15:38:22;18.50;;;8.27;;
67965;SDS011;54749;47.850;9.002;2022-11-14T15:41:28;21.25;;;8.75;;
67965;SDS011;54749;47.850;9.002;2022-11-14T15:44:28;21.65;;;8.77;;
67965;SDS011;54749;47.850;9.002;2022-11-14T15:47:22;21.48;;;8.13;;
67965;SDS011;54749;47.850;9.002;2022-11-14T15:53:16;17.63;;;7.67;;
67965;SDS011;54749;47.850;9.002;2022-11-14T15:56:02;16.23;;;6.82;;
67965;SDS011;54749;47.850;9.002;2022-11-14T15:58:47;15.93;;;6.43;;
67965;SDS011;54749;47.850;9.002;2022-11-14T16:01:34;16.90;;;6.90;;
67965;SDS011;54749;47.850;9.002;2022-11-14T16:04:20;21.05;;;8.63;;
67965;SDS011;54749;47.850;9.002;2022-11-14T16:07:12;21.07;;;8.80;;
67965;SDS011;54749;47.850;9.002;2022-11-14T16:09:59;21.80;;;8.27;;
67965;SDS011;54749;47.850;9.002;2022-11-14T16:12:45;16.10;;;6.80;;
67965;SDS011;54749;47.850;9.002;2022-11-14T16:15:37;29.77;;;12.65;;
67965;SDS011;54749;47.850;9.002;2022-11-14T16:18:22;36.75;;;13.63;;
67965;SDS011;54749;47.850;9.002;2022-11-14T16:21:10;30.07;;;12.10;;
67965;SDS011;54749;47.850;9.002;2022-11-14T16:23:59;46.53;;;15.45;;
67965;SDS011;54749;47.850;9.002;2022-11-14T16:26:45;76.35;;;18.45;;
67965;SDS011;54749;47.850;9.002;2022-11-14T16:29:31;75.20;;;21.42;;
67965;SDS011;54749;47.850;9.002;2022-11-14T16:32:16;50.88;;;16.50;;
67965;SDS011;54749;47.850;9.002;2022-11-14T16:35:02;36.70;;;13.97;;
67965;SDS011;54749;47.850;9.002;2022-11-14T16:37:48;29.80;;;12.73;;
67965;SDS011;54749;47.850;9.002;2022-11-14T16:40:34;27.67;;;11.43;;
67965;SDS011;54749;47.850;9.002;2022-11-14T16:43:19;27.63;;;11.63;;
67965;SDS011;54749;47.850;9.002;2022-11-14T16:46:05;34.72;;;13.80;;
67965;SDS011;54749;47.850;9.002;2022-11-14T16:48:51;33.93;;;14.10;;
67965;SDS011;54749;47.850;9.002;2022-11-14T16:51:39;34.55;;;13.52;;
67965;SDS011;54749;47.850;9.002;2022-11-14T16:54:33;31.02;;;12.23;;
67965;SDS011;54749;47.850;9.002;2022-11-14T16:57:18;27.23;;;11.05;;
67965;SDS011;54749;47.850;9.002;2022-11-14T17:00:04;26.95;;;12.38;;
67965;SDS011;54749;47.850;9.002;2022-11-14T17:02:55;30.43;;;12.30;;
67965;SDS011;54749;47.850;9.002;2022-11-14T17:05:47;42.33;;;17.13;;
67965;SDS011;54749;47.850;9.002;2022-11-14T17:08:34;52.50;;;21.42;;
67965;SDS011;54749;47.850;9.002;2022-11-14T17:11:19;34.38;;;14.20;;
67965;SDS011;54749;47.850;9.002;2022-11-14T17:14:06;33.38;;;13.73;;
67965;SDS011;54749;47.850;9.002;2022-11-14T17:16:51;27.40;;;13.00;;
67965;SDS011;54749;47.850;9.002;2022-11-14T17:19:37;29.00;;;12.10;;
67965;SDS011;54749;47.850;9.002;2022-11-14T17:22:29;28.35;;;11.68;;
67965;SDS011;54749;47.850;9.002;2022-11-14T17:25:15;20.70;;;8.50;;
67965;SDS011;54749;47.850;9.002;2022-11-14T17:28:00;19.08;;;7.95;;
67965;SDS011;54749;47.850;9.002;2022-11-14T17:30:45;20.67;;;8.57;;
67965;SDS011;54749;47.850;9.002;2022-11-14T17:33:31;19.55;;;7.45;;
67965;SDS011;54749;47.850;9.002;2022-11-14T17:36:17;19.88;;;8.07;;
67965;SDS011;54749;47.850;9.002;2022-11-14T17:39:02;17.45;;;7.03;;
67965;SDS011;54749;47.850;9.002;2022-11-14T17:41:48;18.20;;;8.25;;
67965;SDS011;54749;47.850;9.002;2022-11-14T17:44:34;16.87;;;7.10;;
67965;SDS011;54749;47.850;9.002;2022-11-14T17:47:19;21.08;;;8.50;;
67965;SDS011;54749;47.850;9.002;2022-11-14T17:50:05;18.40;;;7.68;;
67965;SDS011;54749;47.850;9.002;2022-11-14T17:52:51;18.75;;;7.80;;
67965;SDS011;54749;47.850;9.002;2022-11-14T17:55:36;23.77;;;11.45;;
67965;SDS011;54749;47.850;9.002;2022-11-14T17:58:22;23.70;;;11.00;;
67965;SDS011;54749;47.850;9.002;2022-11-14T18:01:09;28.20;;;14.45;;
67965;SDS011;54749;47.850;9.002;2022-11-14T18:04:00;24.55;;;11.18;;
67965;SDS011;54749;47.850;9.002;2022-11-14T18:06:50;20.20;;;9.35;;
67965;SDS011;54749;47.850;9.002;2022-11-14T18:09:37;18.75;;;9.02;;
67965;SDS011;54749;47.850;9.002;2022-11-14T18:12:22;18.20;;;7.67;;
67965;SDS011;54749;47.850;9.002;2022-11-14T18:15:08;18.95;;;7.43;;
67965;SDS011;54749;47.850;9.002;2022-11-14T18:17:53;17.93;;;7.37;;
67965;SDS011;54749;47.850;9.002;2022-11-14T18:20:39;14.30;;;6.22;;
67965;SDS011;54749;47.850;9.002;2022-11-14T18:23:24;27.58;;;8.38;;
67965;SDS011;54749;47.850;9.002;2022-11-14T18:26:10;31.13;;;10.60;;
67965;SDS011;54749;47.850;9.002;2022-11-14T18:28:58;25.85;;;8.13;;
67965;SDS011;54749;47.850;9.002;2022-11-14T18:31:46;19.42;;;8.10;;
67965;SDS011;54749;47.850;9.002;2022-11-14T18:34:32;18.70;;;7.80;;